createdAt,value
2022-09-07T00:00:54.833Z,5.05
2022-09-07T00:03:22.957Z,5.80
2022-09-07T00:05:52.349Z,5.50
2022-09-07T00:08:22.392Z,5.60
2022-09-07T00:10:56.377Z,5.97
2022-09-07T00:13:25.232Z,6.13
2022-09-07T00:15:53.627Z,6.50
2022-09-07T00:18:22.122Z,5.60
2022-09-07T00:20:59.038Z,5.47
2022-09-07T00:23:28.191Z,5.88
2022-09-07T00:26:00.624Z,6.28
2022-09-07T00:28:28.569Z,5.60
2022-09-07T00:30:56.811Z,6.47
2022-09-07T00:33:24.616Z,6.63
2022-09-07T00:35:52.458Z,6.30
2022-09-07T00:38:20.534Z,5.97
2022-09-07T00:40:48.275Z,6.43
2022-09-07T00:43:29.252Z,5.93
2022-09-07T00:45:57.096Z,6.70
2022-09-07T00:48:31.154Z,6.70
2022-09-07T00:51:02.538Z,5.78
2022-09-07T00:53:34.127Z,6.03
2022-09-07T00:56:03.611Z,6.72
2022-09-07T00:58:35.540Z,6.60
2022-09-07T01:01:03.361Z,6.55
2022-09-07T01:03:37.407Z,6.53
2022-09-07T01:06:10.771Z,6.47
2022-09-07T01:08:39.120Z,6.10
2022-09-07T01:11:07.590Z,5.85
2022-09-07T01:13:37.157Z,5.93
2022-09-07T01:16:13.789Z,6.35
2022-09-07T01:18:49.998Z,5.85
2022-09-07T01:21:24.553Z,5.97
2022-09-07T01:24:35.268Z,6.32
2022-09-07T01:27:46.427Z,7.13
2022-09-07T01:30:17.117Z,6.47
2022-09-07T01:33:08.441Z,6.18
2022-09-07T01:35:46.431Z,6.78
2022-09-07T01:38:23.366Z,6.90
2022-09-07T01:40:58.265Z,7.28
2022-09-07T01:43:36.348Z,7.70
2022-09-07T01:46:07.712Z,7.32
2022-09-07T01:48:38.899Z,7.13
2022-09-07T01:51:07.912Z,6.75
2022-09-07T01:53:40.588Z,7.03
2022-09-07T01:56:12.211Z,7.50
2022-09-07T01:58:46.636Z,7.60
2022-09-07T02:01:21.303Z,7.03
2022-09-07T02:03:52.670Z,6.90
2022-09-07T02:06:24.716Z,7.13
2022-09-07T02:08:57.130Z,8.30
2022-09-07T02:11:28.439Z,6.25
2022-09-07T02:14:02.953Z,6.50
2022-09-07T02:16:33.443Z,6.97
2022-09-07T02:19:05.587Z,7.70
2022-09-07T02:21:37.854Z,7.63
2022-09-07T02:26:39.654Z,6.97
2022-09-07T02:29:09.107Z,7.07
2022-09-07T02:31:37.147Z,7.45
2022-09-07T02:34:05.368Z,6.82
2022-09-07T02:36:39.377Z,7.40
2022-09-07T02:39:07.187Z,7.60
2022-09-07T02:41:37.748Z,7.13
2022-09-07T02:44:11.728Z,7.10
2022-09-07T02:46:53.980Z,7.25
2022-09-07T02:49:46.259Z,6.70
2022-09-07T02:52:23.399Z,7.07
2022-09-07T02:55:02.581Z,7.60
2022-09-07T02:57:39.702Z,8.13
2022-09-07T03:00:12.455Z,8.68
2022-09-07T03:02:48.899Z,7.25
2022-09-07T03:05:21.372Z,7.97
2022-09-07T03:07:55.806Z,8.27
2022-09-07T03:10:24.402Z,8.02
2022-09-07T03:12:52.692Z,8.15
2022-09-07T03:15:24.357Z,8.68
2022-09-07T03:17:52.774Z,8.35
2022-09-07T03:20:21.621Z,7.95
2022-09-07T03:22:50.735Z,7.75
2022-09-07T03:25:19.449Z,7.90
2022-09-07T03:27:47.247Z,7.10
2022-09-07T03:30:15.650Z,8.05
2022-09-07T03:32:44.804Z,7.40
2022-09-07T03:35:14.470Z,7.85
2022-09-07T03:37:42.603Z,7.95
2022-09-07T03:40:13.306Z,8.00
2022-09-07T03:42:41.852Z,7.50
2022-09-07T03:45:11.440Z,6.93
2022-09-07T03:47:39.491Z,8.07
2022-09-07T03:50:09.492Z,6.78
2022-09-07T03:52:38.204Z,6.60
2022-09-07T03:55:06.741Z,7.07
2022-09-07T03:57:34.696Z,7.32
2022-09-07T04:00:02.900Z,7.70
2022-09-07T04:02:30.681Z,7.32
2022-09-07T04:04:58.457Z,7.78
2022-09-07T04:07:27.541Z,7.18
2022-09-07T04:09:55.467Z,7.22
2022-09-07T04:12:23.215Z,7.60
2022-09-07T04:14:50.971Z,7.55
2022-09-07T04:17:18.758Z,7.32
2022-09-07T04:19:46.487Z,7.50
2022-09-07T04:22:14.247Z,7.55
2022-09-07T04:24:43.403Z,8.00
2022-09-07T04:27:11.162Z,8.00
2022-09-07T04:29:39.047Z,8.32
2022-09-07T04:32:06.952Z,8.23
2022-09-07T04:34:34.706Z,8.95
2022-09-07T04:37:02.985Z,8.57
2022-09-07T04:39:30.749Z,8.90
2022-09-07T04:41:59.951Z,7.47
2022-09-07T04:44:27.744Z,7.43
2022-09-07T04:46:55.548Z,8.98
2022-09-07T04:49:23.272Z,8.15
2022-09-07T04:51:51.015Z,8.00
2022-09-07T04:54:18.771Z,8.10
2022-09-07T04:56:46.509Z,7.63
2022-09-07T04:59:15.564Z,8.35
2022-09-07T05:01:43.388Z,7.97
2022-09-07T05:04:11.195Z,7.40
2022-09-07T05:06:39.024Z,7.20
2022-09-07T05:09:06.828Z,8.00
2022-09-07T05:11:35.008Z,8.68
2022-09-07T05:14:04.140Z,8.50
2022-09-07T05:16:33.371Z,8.70
2022-09-07T05:19:03.661Z,8.50
2022-09-07T05:21:33.323Z,9.13
2022-09-07T05:24:02.126Z,8.70
2022-09-07T05:26:32.827Z,8.50
2022-09-07T05:31:51.500Z,10.57
2022-09-07T05:34:34.757Z,9.65
2022-09-07T05:37:02.935Z,11.35
2022-09-07T05:39:31.342Z,11.95
2022-09-07T05:41:59.182Z,11.85
2022-09-07T05:47:11.348Z,14.85
2022-09-07T05:49:39.128Z,22.02
2022-09-07T05:52:06.985Z,16.67
2022-09-07T05:54:34.748Z,13.82
2022-09-07T05:57:03.522Z,12.10
2022-09-07T05:59:31.370Z,13.05
2022-09-07T06:01:59.302Z,10.93
2022-09-07T06:04:28.459Z,10.43
2022-09-07T06:07:21.484Z,10.10
2022-09-07T06:12:31.722Z,11.35
2022-09-07T06:15:01.020Z,9.65
2022-09-07T06:17:29.681Z,10.18
2022-09-07T06:19:58.858Z,9.68
2022-09-07T06:22:30.705Z,11.13
2022-09-07T06:24:58.934Z,9.40
2022-09-07T06:27:27.869Z,9.48
2022-09-07T06:29:55.746Z,10.40
2022-09-07T06:35:14.091Z,10.52
2022-09-07T06:37:42.491Z,10.45
2022-09-07T06:40:12.016Z,11.10
2022-09-07T06:42:40.337Z,10.55
2022-09-07T06:45:10.120Z,8.70
2022-09-07T06:47:38.133Z,11.32
2022-09-07T06:50:06.464Z,10.50
2022-09-07T06:55:25.627Z,9.45
2022-09-07T06:57:53.806Z,10.18
2022-09-07T07:00:21.772Z,10.23
2022-09-07T07:02:49.549Z,9.05
2022-09-07T07:05:17.677Z,9.15
2022-09-07T07:07:46.744Z,9.80
2022-09-07T07:10:14.594Z,8.90
2022-09-07T07:15:10.132Z,9.82
2022-09-07T07:17:37.863Z,8.82
2022-09-07T07:20:06.907Z,10.27
2022-09-07T07:22:50.216Z,11.35
2022-09-07T07:25:20.019Z,10.30
2022-09-07T07:27:47.880Z,9.25
2022-09-07T07:30:17.139Z,10.90
2022-09-07T07:32:45.369Z,9.85
2022-09-07T07:35:14.093Z,10.52
2022-09-07T07:37:42.256Z,10.52
2022-09-07T07:42:42.919Z,10.23
2022-09-07T07:47:59.433Z,9.65
2022-09-07T07:50:31.022Z,10.45
2022-09-07T07:55:47.690Z,6.88
2022-09-07T07:58:16.714Z,6.53
2022-09-07T08:00:54.212Z,6.40
2022-09-07T08:03:23.097Z,6.68
2022-09-07T08:05:50.831Z,8.52
2022-09-07T08:08:18.553Z,9.30
2022-09-07T08:10:47.952Z,8.27
2022-09-07T08:13:17.850Z,9.23
2022-09-07T08:15:46.379Z,7.60
2022-09-07T08:18:14.934Z,6.13
2022-09-07T08:20:43.071Z,8.18
2022-09-07T08:23:11.669Z,8.07
2022-09-07T08:25:39.490Z,7.95
2022-09-07T08:28:07.365Z,6.40
2022-09-07T08:30:39.981Z,8.25
2022-09-07T08:33:07.657Z,7.40
2022-09-07T08:35:35.385Z,9.13
2022-09-07T08:38:03.097Z,7.00
2022-09-07T08:40:32.164Z,6.43
2022-09-07T08:43:09.663Z,6.38
2022-09-07T08:45:44.014Z,7.90
2022-09-07T08:48:18.403Z,7.70
2022-09-07T08:50:54.044Z,7.30
2022-09-07T08:53:25.000Z,9.20
2022-09-07T08:55:56.882Z,7.50
2022-09-07T08:58:48.308Z,6.97
2022-09-07T09:01:35.497Z,8.63
2022-09-07T09:04:21.197Z,7.95
2022-09-07T09:07:05.189Z,7.43
2022-09-07T09:09:46.960Z,6.47
2022-09-07T09:12:24.732Z,8.48
2022-09-07T09:15:05.768Z,7.30
2022-09-07T09:17:40.605Z,6.95
2022-09-07T09:20:20.185Z,7.20
2022-09-07T09:22:48.542Z,6.35
2022-09-07T09:25:21.293Z,7.47
2022-09-07T09:27:50.034Z,7.68
2022-09-07T09:30:20.496Z,6.53
2022-09-07T09:32:52.524Z,6.68
2022-09-07T09:35:28.328Z,7.88
2022-09-07T09:37:57.570Z,6.72
2022-09-07T09:40:29.180Z,6.03
2022-09-07T09:43:02.918Z,5.95
2022-09-07T09:46:12.043Z,7.18
2022-09-07T09:48:33.385Z,8.25
2022-09-07T09:53:57.738Z,8.52
2022-09-07T09:56:39.456Z,7.13
2022-09-07T10:05:28.238Z,7.90
2022-09-07T10:07:56.314Z,8.02
2022-09-07T10:10:24.228Z,8.52
2022-09-07T10:12:54.217Z,8.52
2022-09-07T10:15:28.602Z,7.97
2022-09-07T10:17:57.118Z,7.35
2022-09-07T10:20:35.050Z,7.70
2022-09-07T10:23:04.646Z,7.10
2022-09-07T10:25:34.104Z,5.93
2022-09-07T10:28:04.904Z,6.22
2022-09-07T10:30:41.372Z,7.03
2022-09-07T10:33:16.945Z,5.85
2022-09-07T10:35:54.570Z,6.80
2022-09-07T10:38:25.102Z,7.25
2022-09-07T10:41:05.792Z,7.80
2022-09-07T10:43:43.223Z,8.05
2022-09-07T10:49:24.431Z,6.97
2022-09-07T10:52:04.582Z,6.78
2022-09-07T10:54:44.724Z,7.45
2022-09-07T10:57:48.236Z,6.05
2022-09-07T11:00:18.980Z,5.25
2022-09-07T11:03:27.381Z,4.75
2022-09-07T11:06:11.534Z,5.25
2022-09-07T11:12:05.848Z,4.68
2022-09-07T11:14:39.610Z,5.40
2022-09-07T11:17:14.868Z,5.63
2022-09-07T11:19:50.003Z,4.40
2022-09-07T11:22:26.643Z,3.83
2022-09-07T11:27:53.203Z,5.20
2022-09-07T11:30:23.634Z,5.40
2022-09-07T11:33:03.428Z,4.88
2022-09-07T11:35:48.624Z,4.82
2022-09-07T11:38:25.652Z,4.88
2022-09-07T11:41:05.594Z,4.43
2022-09-07T11:43:40.610Z,3.95
2022-09-07T11:46:14.165Z,4.78
2022-09-07T11:48:46.575Z,4.35
2022-09-07T11:51:20.650Z,5.28
2022-09-07T11:53:52.718Z,5.00
2022-09-07T11:56:26.810Z,4.55
2022-09-07T11:59:12.188Z,4.43
2022-09-07T12:01:53.550Z,5.47
2022-09-07T12:04:41.385Z,4.10
2022-09-07T12:07:26.368Z,4.10
2022-09-07T12:10:15.125Z,4.72
2022-09-07T12:13:10.808Z,4.20
2022-09-07T12:15:50.351Z,4.38
2022-09-07T12:18:44.787Z,4.28
2022-09-07T12:21:38.746Z,3.97
2022-09-07T12:24:06.795Z,4.40
2022-09-07T12:26:52.436Z,4.25
2022-09-07T12:29:24.676Z,3.60
2022-09-07T12:31:58.904Z,3.55
2022-09-07T12:34:50.327Z,4.20
2022-09-07T12:37:41.652Z,3.53
2022-09-07T12:40:58.854Z,3.90
2022-09-07T12:43:50.992Z,4.05
2022-09-07T12:46:41.531Z,3.60
2022-09-07T12:49:22.029Z,4.05
2022-09-07T12:52:11.571Z,3.85
2022-09-07T12:54:55.917Z,4.00
2022-09-07T12:57:43.639Z,3.97
2022-09-07T13:00:19.473Z,3.47
2022-09-07T13:03:51.805Z,3.20
2022-09-07T13:06:18.653Z,3.85
2022-09-07T13:09:13.397Z,3.50
2022-09-07T13:11:41.804Z,3.22
2022-09-07T13:14:21.594Z,3.30
2022-09-07T13:20:18.327Z,3.17
2022-09-07T13:23:31.375Z,3.00
2022-09-07T13:26:01.313Z,3.25
2022-09-07T13:28:37.776Z,3.03
2022-09-07T13:31:24.185Z,2.38
2022-09-07T13:33:52.856Z,2.55
2022-09-07T13:36:26.573Z,2.72
2022-09-07T13:38:55.653Z,2.50
2022-09-07T13:41:34.794Z,2.70
2022-09-07T13:44:04.432Z,2.60
2022-09-07T13:46:50.319Z,2.78
2022-09-07T13:49:39.274Z,2.85
2022-09-07T13:52:16.034Z,3.65
2022-09-07T13:55:04.280Z,2.78
2022-09-07T13:57:38.873Z,2.28
2022-09-07T14:00:13.748Z,2.63
2022-09-07T14:02:42.106Z,2.67
2022-09-07T14:05:12.796Z,2.67
2022-09-07T14:07:47.448Z,2.45
2022-09-07T14:10:19.556Z,2.70
2022-09-07T14:12:49.798Z,2.58
2022-09-07T14:15:24.280Z,2.97
2022-09-07T14:18:02.929Z,2.67
2022-09-07T14:20:32.366Z,2.60
2022-09-07T14:23:01.678Z,2.50
2022-09-07T14:25:29.724Z,2.92
2022-09-07T14:27:58.988Z,3.00
2022-09-07T14:30:29.213Z,2.80
2022-09-07T14:32:58.781Z,2.55
2022-09-07T14:35:29.283Z,2.28
2022-09-07T14:38:06.786Z,2.47
2022-09-07T14:40:36.746Z,2.38
2022-09-07T14:43:05.135Z,2.63
2022-09-07T14:45:34.854Z,2.42
2022-09-07T14:48:16.242Z,2.40
2022-09-07T14:51:00.887Z,2.72
2022-09-07T14:53:37.088Z,2.60
2022-09-07T14:56:11.443Z,2.42
2022-09-07T14:58:39.170Z,2.35
2022-09-07T15:04:18.970Z,2.70
2022-09-07T15:07:02.921Z,2.38
2022-09-07T15:09:36.717Z,2.38
2022-09-07T15:12:24.909Z,2.80
2022-09-07T15:15:11.050Z,3.00
2022-09-07T15:17:46.219Z,2.88
2022-09-07T15:20:32.706Z,2.90
2022-09-07T15:23:00.760Z,3.10
2022-09-07T15:25:28.740Z,2.85
2022-09-07T15:27:58.322Z,2.72
2022-09-07T15:30:27.358Z,2.92
2022-09-07T15:32:56.883Z,2.90
2022-09-07T15:35:24.990Z,2.47
2022-09-07T15:41:10.531Z,3.03
2022-09-07T15:43:34.350Z,2.80
2022-09-07T15:46:03.770Z,2.80
2022-09-07T15:48:31.777Z,2.97
2022-09-07T15:52:04.310Z,3.00
2022-09-07T15:54:12.909Z,2.72
2022-09-07T15:56:41.461Z,2.63
2022-09-07T15:59:12.809Z,2.88
2022-09-07T16:01:56.863Z,2.72
2022-09-07T16:04:25.122Z,2.83
2022-09-07T16:06:52.905Z,2.63
2022-09-07T16:09:22.123Z,3.05
2022-09-07T16:11:50.914Z,2.95
2022-09-07T16:14:20.312Z,2.45
2022-09-07T16:19:36.225Z,2.83
2022-09-07T16:22:04.732Z,3.10
2022-09-07T16:24:34.252Z,3.40
2022-09-07T16:27:03.010Z,3.17
2022-09-07T16:29:32.175Z,2.53
2022-09-07T16:34:47.553Z,3.15
2022-09-07T16:37:15.819Z,3.10
2022-09-07T16:39:43.556Z,2.65
2022-09-07T16:42:11.581Z,2.90
2022-09-07T16:44:40.640Z,3.13
2022-09-07T16:47:08.600Z,2.55
2022-09-07T16:49:36.414Z,3.10
2022-09-07T16:52:05.256Z,3.03
2022-09-07T16:54:32.971Z,3.30
2022-09-07T16:57:00.666Z,2.90
2022-09-07T16:59:28.507Z,3.17
2022-09-07T17:01:57.581Z,3.10
2022-09-07T17:04:25.633Z,3.03
2022-09-07T17:06:54.466Z,3.92
2022-09-07T17:09:26.373Z,3.88
2022-09-07T17:11:54.084Z,3.72
2022-09-07T17:14:21.876Z,3.53
2022-09-07T17:16:49.645Z,3.22
2022-09-07T17:19:36.227Z,3.35
2022-09-07T17:22:05.180Z,3.60
2022-09-07T17:24:32.952Z,3.42
2022-09-07T17:27:00.951Z,2.90
2022-09-07T17:29:30.393Z,3.38
2022-09-07T17:34:49.499Z,3.83
2022-09-07T17:37:17.760Z,3.60
2022-09-07T17:39:45.805Z,3.25
2022-09-07T17:42:13.967Z,2.85
2022-09-07T17:44:41.946Z,3.17
2022-09-07T17:47:10.059Z,3.10
2022-09-07T17:49:37.855Z,3.70
2022-09-07T17:52:08.429Z,4.93
2022-09-07T17:54:37.046Z,3.80
2022-09-07T17:57:05.373Z,3.45
2022-09-07T18:02:21.439Z,3.53
2022-09-07T18:04:49.770Z,3.50
2022-09-07T18:07:18.830Z,3.90
2022-09-07T18:09:46.617Z,3.20
2022-09-07T18:12:14.429Z,3.85
2022-09-07T18:14:43.563Z,3.40
2022-09-07T18:17:11.668Z,3.30
2022-09-07T18:19:39.379Z,3.10
2022-09-07T18:22:08.633Z,3.47
2022-09-07T18:24:37.849Z,3.03
2022-09-07T18:27:05.989Z,3.05
2022-09-07T18:29:34.546Z,3.25
2022-09-07T18:32:08.207Z,3.45
2022-09-07T18:34:37.659Z,3.50
2022-09-07T18:37:05.987Z,3.60
2022-09-07T18:39:35.398Z,3.20
2022-09-07T18:42:04.986Z,3.17
2022-09-07T18:47:27.603Z,3.63
2022-09-07T18:49:56.448Z,4.25
2022-09-07T18:55:12.145Z,1.90
2022-09-07T18:57:41.208Z,2.00
2022-09-07T19:00:11.309Z,1.77
2022-09-07T19:02:39.187Z,2.22
2022-09-07T19:07:55.164Z,2.47
2022-09-07T19:10:23.084Z,2.17
2022-09-07T19:12:52.163Z,2.47
2022-09-07T19:15:20.655Z,2.60
2022-09-07T19:17:48.505Z,2.50
2022-09-07T19:20:16.329Z,2.55
2022-09-07T19:22:44.484Z,2.63
2022-09-07T19:25:12.230Z,2.63
2022-09-07T19:27:39.970Z,2.63
2022-09-07T19:30:10.478Z,2.35
2022-09-07T19:32:38.245Z,2.72
2022-09-07T19:35:06.418Z,2.70
2022-09-07T19:37:34.184Z,2.30
2022-09-07T19:40:02.532Z,2.80
2022-09-07T19:42:30.299Z,2.83
2022-09-07T19:44:58.303Z,2.67
2022-09-07T19:47:27.307Z,2.75
2022-09-07T19:49:55.086Z,2.85
2022-09-07T19:52:22.880Z,3.15
2022-09-07T19:54:50.569Z,3.03
2022-09-07T19:57:18.570Z,3.00
2022-09-07T19:59:47.217Z,3.08
2022-09-07T20:02:14.909Z,3.05
2022-09-07T20:04:43.989Z,3.38
2022-09-07T20:07:12.861Z,3.78
2022-09-07T20:09:40.566Z,3.35
2022-09-07T20:12:09.062Z,3.72
2022-09-07T20:14:36.951Z,3.50
2022-09-07T20:17:04.667Z,3.35
2022-09-07T20:19:32.501Z,4.00
2022-09-07T20:22:01.576Z,3.97
2022-09-07T20:24:29.317Z,3.50
2022-09-07T20:26:57.229Z,3.92
2022-09-07T20:29:29.026Z,3.30
2022-09-07T20:34:26.319Z,3.83
2022-09-07T20:36:54.717Z,4.25
2022-09-07T20:39:24.962Z,4.40
2022-09-07T20:41:52.674Z,4.38
2022-09-07T20:44:20.400Z,4.85
2022-09-07T20:46:48.568Z,4.63
2022-09-07T20:49:16.349Z,4.45
2022-09-07T20:51:44.292Z,4.10
2022-09-07T20:54:12.123Z,4.65
2022-09-07T20:56:41.147Z,4.45
2022-09-07T20:59:09.025Z,4.50
2022-09-07T21:01:36.916Z,4.80
2022-09-07T21:04:06.164Z,4.63
2022-09-07T21:06:34.291Z,4.68
2022-09-07T21:09:02.061Z,5.28
2022-09-07T21:11:31.824Z,4.63
2022-09-07T21:14:05.522Z,4.65
2022-09-07T21:16:33.484Z,4.50
2022-09-07T21:19:02.995Z,4.47
2022-09-07T21:21:38.395Z,4.15
2022-09-07T21:24:07.772Z,4.25
2022-09-07T21:26:35.511Z,4.50
2022-09-07T21:29:05.972Z,4.93
2022-09-07T21:31:34.748Z,4.88
2022-09-07T21:34:03.473Z,4.95
2022-09-07T21:36:31.979Z,4.85
2022-09-07T21:38:59.925Z,5.28
2022-09-07T21:41:27.849Z,5.40
2022-09-07T21:43:56.644Z,5.20
2022-09-07T21:46:26.946Z,5.30
2022-09-07T21:48:56.378Z,5.00
2022-09-07T21:51:25.104Z,4.68
2022-09-07T21:53:53.672Z,4.43
2022-09-07T21:56:22.154Z,4.68
2022-09-07T21:58:53.714Z,4.47
2022-09-07T22:01:21.907Z,5.03
2022-09-07T22:03:55.678Z,4.93
2022-09-07T22:06:24.066Z,5.15
2022-09-07T22:08:52.190Z,5.07
2022-09-07T22:11:22.373Z,4.55
2022-09-07T22:13:50.295Z,5.50
2022-09-07T22:16:18.043Z,4.55
2022-09-07T22:18:46.781Z,5.65
2022-09-07T22:21:17.973Z,5.25
2022-09-07T22:23:47.840Z,4.87
2022-09-07T22:26:18.279Z,4.75
2022-09-07T22:28:46.098Z,5.32
2022-09-07T22:31:16.641Z,5.20
2022-09-07T22:33:45.318Z,5.05
2022-09-07T22:36:16.596Z,5.35
2022-09-07T22:38:45.733Z,5.80
2022-09-07T22:41:15.531Z,5.65
2022-09-07T22:43:43.767Z,5.10
2022-09-07T22:46:12.761Z,4.85
2022-09-07T22:48:41.384Z,5.07
2022-09-07T22:51:10.405Z,5.43
2022-09-07T22:53:41.484Z,5.65
2022-09-07T22:56:11.115Z,5.15
2022-09-07T22:58:39.246Z,5.40
2022-09-07T23:01:08.514Z,5.82
2022-09-07T23:03:37.839Z,5.28
2022-09-07T23:06:07.451Z,5.10
2022-09-07T23:08:36.924Z,5.60
2022-09-07T23:11:06.393Z,5.63
2022-09-07T23:13:34.583Z,5.50
2022-09-07T23:16:06.175Z,5.65
2022-09-07T23:18:35.156Z,5.80
2022-09-07T23:21:03.514Z,5.60
2022-09-07T23:23:31.861Z,5.88
2022-09-07T23:26:02.304Z,6.00
2022-09-07T23:28:32.192Z,5.63
2022-09-07T23:31:00.612Z,6.05
2022-09-07T23:33:28.581Z,5.32
2022-09-07T23:35:57.437Z,6.20
2022-09-07T23:38:26.172Z,5.05
2022-09-07T23:40:54.538Z,5.80
2022-09-07T23:43:22.585Z,5.88
2022-09-07T23:45:51.976Z,5.95
2022-09-07T23:48:20.011Z,6.30
2022-09-07T23:50:48.134Z,6.40
2022-09-07T23:53:16.831Z,6.65
2022-09-07T23:55:45.865Z,5.70
2022-09-07T23:58:13.598Z,5.10
